Time;durP1;ratioP1;P1;durP2;ratioP2;P2;SDS_P1;SDS_P2;PMS_P1;PMS_P2;Temp;Humidity;BMP_temperature;BMP_pressure;BME280_temperature;BME280_humidity;BME280_pressure;Samples;Min_cycle;Max_cycle;Signal;HPM_P1;HPM_P2
2020/12/29 00:02:15;;;;;;;13.40;10.35;;;;;;;0.90;79.13;101342.18;1714762;82;21051;-76
2020/12/29 00:04:43;;;;;;;15.78;10.23;;;;;;;0.89;79.11;101343.03;1714974;82;21023;-75
2020/12/29 00:07:56;;;;;;;15.53;11.60;;;;;;;0.93;79.14;101334.39;1813558;79;22518;-76
2020/12/29 00:10:24;;;;;;;15.80;12.33;;;;;;;0.86;79.06;101328.87;1755590;80;20954;-77
2020/12/29 00:12:52;;;;;;;16.05;11.85;;;;;;;0.87;79.21;101326.28;1755569;79;21006;-76
2020/12/29 00:15:20;;;;;;;13.50;9.95;;;;;;;0.91;78.93;101329.27;1755504;80;20966;-77
2020/12/29 00:17:48;;;;;;;12.88;10.45;;;;;;;0.92;78.79;101332.25;1755726;80;20914;-77
2020/12/29 00:20:16;;;;;;;14.18;10.53;;;;;;;0.89;78.92;101325.84;1755460;79;21009;-77
2020/12/29 00:22:44;;;;;;;16.02;11.45;;;;;;;0.91;78.98;101316.77;1755617;80;21586;-77
2020/12/29 00:25:16;;;;;;;17.80;11.65;;;;;;;0.89;78.89;101317.21;1747738;81;21175;-77
2020/12/29 00:27:45;;;;;;;16.07;11.65;;;;;;;0.83;78.94;101306.52;1725409;81;21439;-76
2020/12/29 00:30:14;;;;;;;17.10;12.00;;;;;;;0.81;79.01;101315.56;1725644;81;21602;-77
2020/12/29 00:32:42;;;;;;;15.15;10.35;;;;;;;0.81;79.03;101316.00;1725409;81;21037;-77
2020/12/29 00:35:10;;;;;;;13.20;10.03;;;;;;;0.81;79.09;101312.13;1725410;81;21041;-76
2020/12/29 00:37:38;;;;;;;12.63;10.30;;;;;;;0.79;79.15;101303.54;1725378;81;21525;-78
2020/12/29 00:40:07;;;;;;;14.65;11.48;;;;;;;0.77;79.25;101307.86;1725324;81;20986;-78
2020/12/29 00:42:36;;;;;;;14.95;10.43;;;;;;;0.74;79.25;101298.86;1725585;81;21025;-75
2020/12/29 00:45:04;;;;;;;16.52;10.28;;;;;;;0.75;79.27;101301.84;1725483;81;21025;-75
2020/12/29 00:47:32;;;;;;;13.43;9.88;;;;;;;0.74;79.29;101298.42;1725288;81;21053;-78
2020/12/29 00:50:00;;;;;;;13.13;9.60;;;;;;;0.74;79.34;101273.05;1725547;81;20994;-76
2020/12/29 00:52:28;;;;;;;14.28;9.28;;;;;;;0.73;79.39;101275.19;1725319;81;20982;-76
2020/12/29 00:55:00;;;;;;;14.38;11.30;;;;;;;0.73;79.40;101288.09;1753019;80;20962;-76
2020/12/29 00:57:30;;;;;;;14.60;11.00;;;;;;;0.71;79.40;101292.00;1724538;81;20946;-77
2020/12/29 00:59:57;;;;;;;11.65;9.55;;;;;;;0.70;79.41;101299.30;1725447;81;20966;-75
2020/12/29 01:02:25;;;;;;;13.75;10.32;;;;;;;0.66;79.46;101304.52;1725262;81;21160;-76
2020/12/29 01:05:16;;;;;;;16.20;10.50;;;;;;;0.68;79.63;101313.09;1775362;79;22803;-76
2020/12/29 01:07:43;;;;;;;13.78;11.10;;;;;;;0.63;79.63;101305.39;1719975;82;21002;-76
2020/12/29 01:10:12;;;;;;;13.75;10.75;;;;;;;0.60;79.75;101307.57;1719875;82;21388;-77
2020/12/29 01:12:43;;;;;;;15.00;10.50;;;;;;;0.59;79.77;101298.54;1716224;82;21004;-77
2020/12/29 01:15:12;;;;;;;15.20;10.75;;;;;;;0.60;79.81;101293.38;1695000;82;20986;-78
2020/12/29 01:17:42;;;;;;;14.03;9.93;;;;;;;0.61;79.83;101296.36;1717232;82;20999;-76
2020/12/29 01:20:10;;;;;;;14.13;8.88;;;;;;;0.60;79.83;101286.92;1718456;82;21018;-77
2020/12/29 01:22:38;;;;;;;13.18;9.30;;;;;;;0.57;79.96;101302.85;1749347;80;21145;-77
2020/12/29 01:25:06;;;;;;;14.45;10.72;;;;;;;0.53;80.04;101302.45;1718652;82;21481;-77
2020/12/29 01:27:37;;;;;;;15.05;10.85;;;;;;;0.54;80.12;101308.05;1718518;82;20999;-76
2020/12/29 01:30:05;;;;;;;14.28;10.78;;;;;;;0.59;80.13;101310.16;1719833;82;20955;-76
2020/12/29 01:32:37;;;;;;;16.57;10.90;;;;;;;0.67;80.02;101323.87;1719932;82;21412;-77
2020/12/29 01:35:05;;;;;;;14.73;10.65;;;;;;;0.73;79.86;101316.05;1697235;82;21158;-76
2020/12/29 01:37:34;;;;;;;16.60;10.60;;;;;;;0.78;79.83;101306.56;1718677;82;21010;-77
2020/12/29 01:40:06;;;;;;;12.80;11.18;;;;;;;0.80;79.57;101303.53;1718635;82;21031;-77
2020/12/29 01:42:33;;;;;;;14.10;9.98;;;;;;;0.77;79.48;101300.11;1719816;82;20931;-76
2020/12/29 01:45:09;;;;;;;14.28;10.48;;;;;;;0.73;79.54;101297.13;1749308;82;21010;-75
2020/12/29 01:47:38;;;;;;;13.62;9.93;;;;;;;0.73;79.52;101288.95;1720162;82;21172;-75
2020/12/29 01:50:16;;;;;;;13.43;10.80;;;;;;;0.72;79.61;101288.54;1749412;81;20959;-74
2020/12/29 01:52:48;;;;;;;15.55;10.98;;;;;;;0.70;79.59;101295.44;1719714;82;20972;-75
2020/12/29 01:55:15;;;;;;;15.38;10.48;;;;;;;0.64;79.81;101299.35;1719997;82;20995;-76
2020/12/29 01:57:43;;;;;;;15.95;11.15;;;;;;;0.66;79.95;101310.52;1720222;82;21068;-76
2020/12/29 02:00:12;;;;;;;13.95;10.38;;;;;;;0.70;79.81;101314.80;1719895;82;22149;-74
2020/12/29 02:02:41;;;;;;;15.90;11.63;;;;;;;0.70;79.67;101288.98;1718617;82;21018;-76
2020/12/29 02:05:09;;;;;;;14.78;10.23;;;;;;;0.71;79.73;101284.67;1714370;82;21405;-75
2020/12/29 02:07:37;;;;;;;12.35;10.30;;;;;;;0.71;79.75;101279.09;1715171;82;20959;-75
2020/12/29 02:10:05;;;;;;;15.23;10.98;;;;;;;0.74;79.83;101285.95;1715030;82;20988;-76
2020/12/29 02:12:35;;;;;;;16.45;11.93;;;;;;;0.74;79.70;101276.48;1715332;82;21990;-75
2020/12/29 02:15:06;;;;;;;14.40;11.57;;;;;;;0.73;79.75;101272.61;1744383;82;21492;-76
2020/12/29 02:17:35;;;;;;;14.87;11.12;;;;;;;0.69;79.78;101271.80;1714593;82;20963;-74
2020/12/29 02:20:04;;;;;;;13.30;10.53;;;;;;;0.71;79.79;101266.19;1714363;82;21030;-76
2020/12/29 02:22:32;;;;;;;11.93;8.88;;;;;;;0.71;79.87;101257.16;1714503;82;20991;-75
2020/12/29 02:25:05;;;;;;;13.15;10.08;;;;;;;0.69;79.95;101248.57;1714540;82;21174;-75
2020/12/29 02:27:45;;;;;;;15.08;10.95;;;;;;;0.65;80.05;101225.38;1714493;82;21002;-75
2020/12/29 02:30:13;;;;;;;16.82;11.43;;;;;;;0.61;80.18;101222.81;1714646;82;20991;-75
2020/12/29 02:32:41;;;;;;;18.32;12.37;;;;;;;0.57;80.33;101210.80;1714538;81;21018;-76
2020/12/29 02:35:11;;;;;;;14.60;11.43;;;;;;;0.56;80.35;101202.66;1714776;82;21030;-75
2020/12/29 02:37:39;;;;;;;14.68;11.12;;;;;;;0.57;80.35;101194.47;1714770;82;21752;-76
2020/12/29 02:40:09;;;;;;;13.80;10.93;;;;;;;0.57;80.47;101208.66;1735428;81;20955;-78
2020/12/29 02:42:37;;;;;;;14.58;10.50;;;;;;;0.61;80.63;101200.88;1714778;82;20993;-74
2020/12/29 02:45:07;;;;;;;17.42;10.68;;;;;;;0.67;80.46;101187.48;1714426;82;20971;-75
2020/12/29 02:47:35;;;;;;;12.58;9.93;;;;;;;0.68;80.34;101181.47;1714668;81;20988;-76
2020/12/29 02:50:06;;;;;;;17.10;11.55;;;;;;;0.65;80.36;101193.13;1714362;82;20989;-75
2020/12/29 02:52:34;;;;;;;13.65;10.48;;;;;;;0.68;80.32;101221.47;1714656;82;20963;-77
2020/12/29 02:55:04;;;;;;;12.53;10.18;;;;;;;0.70;80.32;101214.57;1744147;82;21421;-77
2020/12/29 02:57:32;;;;;;;13.72;10.10;;;;;;;0.73;80.36;101215.38;1714551;82;21038;-77
2020/12/29 03:00:01;;;;;;;15.85;11.20;;;;;;;0.74;80.25;101218.40;1714461;82;21030;-76
2020/12/29 03:02:29;;;;;;;15.40;11.73;;;;;;;0.73;80.29;101224.86;1714459;82;21135;-76
2020/12/29 03:05:01;;;;;;;14.60;10.95;;;;;;;0.74;80.31;101231.30;1724879;81;20978;-76
2020/12/29 03:07:27;;;;;;;15.85;11.12;;;;;;;0.75;80.26;101238.16;1729472;81;20938;-77
2020/12/29 03:09:54;;;;;;;12.15;10.08;;;;;;;0.82;80.22;101253.16;1729508;81;20950;-74
2020/12/29 03:12:23;;;;;;;13.40;9.93;;;;;;;0.85;80.03;101243.27;1730188;81;21006;-76
2020/12/29 03:14:52;;;;;;;12.40;9.85;;;;;;;0.84;80.07;101261.75;1760982;77;21764;-76
2020/12/29 03:17:20;;;;;;;13.72;10.48;;;;;;;0.83;80.16;101252.30;1731059;79;21065;-77
2020/12/29 03:19:47;;;;;;;17.35;12.33;;;;;;;0.86;80.18;101247.54;1730137;81;20955;-78
2020/12/29 03:22:15;;;;;;;16.65;12.10;;;;;;;0.89;80.07;101230.72;1729883;81;20970;-74
2020/12/29 03:24:43;;;;;;;14.63;11.30;;;;;;;0.88;79.99;101255.69;1729582;81;21018;-76
2020/12/29 03:27:11;;;;;;;12.40;9.33;;;;;;;0.87;80.01;101244.95;1729661;81;21089;-75
2020/12/29 03:29:39;;;;;;;15.55;10.85;;;;;;;0.89;80.02;101244.92;1728137;81;21165;-75
2020/12/29 03:32:07;;;;;;;15.95;11.43;;;;;;;0.88;80.02;101231.16;1729422;81;20955;-76
2020/12/29 03:34:38;;;;;;;16.10;11.93;;;;;;;0.89;80.19;101234.18;1729544;81;20971;-77
2020/12/29 03:37:10;;;;;;;16.52;12.68;;;;;;;0.92;80.13;101234.58;1729550;81;20971;-75
2020/12/29 03:39:39;;;;;;;19.60;12.98;;;;;;;0.93;80.15;101224.21;1728416;81;21015;-76
2020/12/29 03:42:07;;;;;;;19.70;14.07;;;;;;;0.95;80.20;101234.53;1728073;81;20963;-75
2020/12/29 03:44:37;;;;;;;17.73;12.18;;;;;;;1.02;80.01;101229.72;1757578;81;20974;-76
2020/12/29 03:47:05;;;;;;;17.70;12.33;;;;;;;1.07;79.95;101218.05;1729673;81;20955;-76
2020/12/29 03:49:33;;;;;;;15.45;10.98;;;;;;;1.14;79.88;101218.42;1729480;81;20990;-76
2020/12/29 03:52:01;;;;;;;18.75;13.40;;;;;;;1.15;79.76;101222.25;1729488;81;21468;-76
2020/12/29 03:54:29;;;;;;;19.48;13.20;;;;;;;1.13;79.68;101218.83;1729508;81;20923;-74
2020/12/29 03:56:57;;;;;;;24.75;15.35;;;;;;;1.09;79.71;101212.42;1728343;80;21380;-76
2020/12/29 03:59:25;;;;;;;22.73;14.55;;;;;;;1.06;79.82;101230.55;1729621;81;20943;-75
2020/12/29 04:01:53;;;;;;;16.57;12.68;;;;;;;1.08;79.81;101220.62;1729471;81;21022;-76
2020/12/29 04:04:21;;;;;;;15.25;11.48;;;;;;;1.12;79.86;101240.38;1725218;82;21159;-75
2020/12/29 04:06:48;;;;;;;16.87;13.13;;;;;;;1.15;79.76;101244.20;1716590;82;21539;-74
2020/12/29 04:09:16;;;;;;;19.65;14.13;;;;;;;1.13;79.81;101233.03;1716521;82;20956;-75
2020/12/29 04:11:44;;;;;;;21.48;15.60;;;;;;;1.10;79.88;101229.20;1716382;82;21071;-75
2020/12/29 04:14:12;;;;;;;23.32;13.45;;;;;;;1.07;80.01;101235.71;1716561;82;20987;-75
2020/12/29 04:16:40;;;;;;;23.65;14.68;;;;;;;1.02;80.13;101225.44;1716432;82;21164;-76
2020/12/29 04:19:08;;;;;;;19.02;13.08;;;;;;;1.02;80.20;101226.72;1716431;82;20920;-76
2020/12/29 04:21:38;;;;;;;17.87;12.23;;;;;;;1.05;80.23;101241.33;1716514;82;20982;-76
2020/12/29 04:24:06;;;;;;;17.70;11.28;;;;;;;1.05;80.28;101234.02;1716339;82;21938;-77
2020/12/29 04:26:34;;;;;;;21.00;14.05;;;;;;;1.03;80.49;101232.30;1716615;82;20959;-75
2020/12/29 04:29:03;;;;;;;25.45;15.60;;;;;;;1.03;80.55;101223.70;1715274;82;21257;-75
2020/12/29 04:31:31;;;;;;;22.77;14.03;;;;;;;1.05;80.64;101219.81;1716553;80;21050;-76
2020/12/29 04:33:59;;;;;;;21.10;14.05;;;;;;;1.05;80.59;101212.06;1716300;82;20963;-75
2020/12/29 04:36:28;;;;;;;18.40;12.37;;;;;;;1.06;80.64;101219.78;1716621;82;20919;-76
2020/12/29 04:38:57;;;;;;;21.17;13.08;;;;;;;1.03;80.64;101233.58;1716626;80;21361;-76
2020/12/29 04:41:40;;;;;;;;;;;;;;;;;;;;;
2020/12/29 04:44:13;;;;;;;22.25;15.55;;;;;;;1.02;81.05;101219.39;1845954;76;23314;-77
2020/12/29 04:46:41;;;;;;;21.73;15.45;;;;;;;0.96;81.25;101218.19;1786346;79;20983;-77
2020/12/29 04:49:12;;;;;;;20.70;14.20;;;;;;;0.99;81.29;101205.23;1786502;79;21028;-76
2020/12/29 04:51:40;;;;;;;19.82;13.83;;;;;;;1.00;81.18;101188.44;1784883;79;21042;-75
2020/12/29 04:54:08;;;;;;;16.82;12.20;;;;;;;1.04;81.14;101186.66;1786155;79;20911;-74
2020/12/29 04:56:36;;;;;;;19.42;12.33;;;;;;;1.05;81.15;101203.03;1786185;77;20946;-74
2020/12/29 04:59:04;;;;;;;23.05;13.08;;;;;;;1.05;81.30;101215.50;1786236;79;21047;-75
2020/12/29 05:01:37;;;;;;;22.07;15.53;;;;;;;1.07;81.32;101229.66;1786416;79;21417;-78
2020/12/29 05:04:13;;;;;;;21.00;14.30;;;;;;;1.07;81.31;101225.79;1817742;78;20994;-78
2020/12/29 05:06:43;;;;;;;25.30;15.83;;;;;;;1.05;81.32;101203.88;1818121;78;21009;-80
2020/12/29 05:09:11;;;;;;;27.05;17.40;;;;;;;1.05;81.33;101209.05;1786066;79;21480;-79
2020/12/29 05:11:39;;;;;;;24.60;16.45;;;;;;;1.08;81.31;101210.28;1786203;79;21480;-78
2020/12/29 05:14:10;;;;;;;24.50;15.23;;;;;;;1.12;81.26;101209.39;1786145;79;21393;-78
2020/12/29 05:16:39;;;;;;;22.25;14.70;;;;;;;1.17;81.25;101202.87;1786160;79;20954;-79
2020/12/29 05:19:10;;;;;;;28.45;17.82;;;;;;;1.19;81.18;101211.02;1784886;79;21372;-78
2020/12/29 05:21:42;;;;;;;24.90;16.42;;;;;;;1.21;81.10;101213.15;1784736;79;21605;-77
2020/12/29 05:24:23;;;;;;;28.95;18.23;;;;;;;1.22;81.06;101222.63;1784840;79;21034;-77
2020/12/29 05:26:58;;;;;;;23.85;15.78;;;;;;;1.20;81.02;101224.37;1784774;79;21029;-79
2020/12/29 05:29:26;;;;;;;23.12;15.55;;;;;;;1.20;81.03;101206.70;1786306;77;20946;-78
2020/12/29 05:31:54;;;;;;;22.42;13.98;;;;;;;1.22;80.98;101212.70;1786226;79;21035;-79
2020/12/29 05:34:27;;;;;;;22.77;14.50;;;;;;;1.22;81.05;101204.54;1817948;78;21013;-79
2020/12/29 05:36:58;;;;;;;23.50;14.75;;;;;;;1.21;81.04;101201.52;1784828;79;20934;-78
2020/12/29 05:39:29;;;;;;;24.75;15.75;;;;;;;1.20;81.04;101201.53;1784991;79;21953;-79
2020/12/29 05:41:57;;;;;;;30.55;17.32;;;;;;;1.17;81.16;101197.27;1784744;79;20984;-77
2020/12/29 05:44:33;;;;;;;22.75;15.72;;;;;;;1.14;81.21;101205.50;1807506;78;20946;-77
2020/12/29 05:47:03;;;;;;;21.42;13.58;;;;;;;1.13;81.21;101195.58;1807670;78;21009;-79
2020/12/29 05:49:32;;;;;;;19.85;15.03;;;;;;;1.12;81.39;101201.64;1807743;78;20982;-77
2020/12/29 05:52:00;;;;;;;24.27;15.83;;;;;;;1.12;81.47;101202.93;1807858;78;21442;-78
2020/12/29 05:54:28;;;;;;;22.75;15.95;;;;;;;1.10;81.55;101202.53;1807339;77;21463;-79
2020/12/29 05:56:57;;;;;;;22.70;14.38;;;;;;;1.13;81.67;101233.48;1807101;78;20929;-76
2020/12/29 05:59:26;;;;;;;25.45;16.67;;;;;;;1.09;81.60;101201.69;1807073;78;20898;-80
2020/12/29 06:01:54;;;;;;;22.77;12.93;;;;;;;1.11;81.58;101218.02;1756291;78;20954;-77
2020/12/29 06:04:22;;;;;;;19.23;14.05;;;;;;;1.11;81.57;101210.69;1807142;78;21223;-78
2020/12/29 06:06:50;;;;;;;18.45;13.30;;;;;;;1.13;81.62;101212.81;1807156;78;21052;-75
2020/12/29 06:09:20;;;;;;;17.70;12.73;;;;;;;1.13;81.74;101236.06;1835393;78;21464;-77
2020/12/29 06:11:53;;;;;;;22.87;15.35;;;;;;;1.13;81.80;101201.19;1806984;78;20969;-78
2020/12/29 06:14:25;;;;;;;26.10;15.90;;;;;;;1.10;81.83;101192.20;1807375;78;21431;-79
2020/12/29 06:16:56;;;;;;;26.65;15.48;;;;;;;1.09;81.89;101193.94;1835355;77;21342;-79
2020/12/29 06:19:27;;;;;;;24.12;14.93;;;;;;;1.10;81.92;101209.84;1807269;78;21360;-78
2020/12/29 06:22:06;;;;;;;22.70;14.10;;;;;;;1.12;81.76;101214.55;1807114;78;20930;-77
2020/12/29 06:24:37;;;;;;;15.98;12.43;;;;;;;1.14;81.83;101224.44;1807095;78;20942;-75
2020/12/29 06:27:07;;;;;;;21.20;13.53;;;;;;;1.15;81.79;101218.38;1807060;77;20937;-78
2020/12/29 06:29:37;;;;;;;19.25;12.90;;;;;;;1.16;81.86;101217.52;1806898;78;20975;-77
2020/12/29 06:32:19;;;;;;;24.57;16.52;;;;;;;1.17;81.84;101220.51;1807178;78;20961;-77
2020/12/29 06:34:48;;;;;;;26.00;15.32;;;;;;;1.18;81.75;101217.07;1807052;78;20934;-77
2020/12/29 06:37:26;;;;;;;25.68;17.27;;;;;;;1.18;81.75;101201.58;1807087;78;20949;-77
2020/12/29 06:40:08;;;;;;;19.87;13.00;;;;;;;1.14;81.73;101194.73;1807121;78;21013;-82
2020/12/29 06:42:43;;;;;;;21.97;14.43;;;;;;;1.18;81.73;101199.44;1779825;77;21352;-79
2020/12/29 06:45:12;;;;;;;22.95;15.35;;;;;;;1.21;81.79;101200.23;1801253;78;21051;-77
2020/12/29 06:47:46;;;;;;;21.60;12.93;;;;;;;1.22;81.80;101209.71;1804278;78;21443;-79
2020/12/29 06:50:31;;;;;;;24.57;17.32;;;;;;;1.22;81.80;101203.66;1776131;77;20910;-78
2020/12/29 06:53:06;;;;;;;23.05;15.28;;;;;;;1.23;81.86;101202.36;1733903;81;21050;-76
2020/12/29 06:55:54;;;;;;;19.90;12.58;;;;;;;1.33;81.72;101204.83;1876315;75;22746;-80
2020/12/29 06:58:32;;;;;;;23.40;13.83;;;;;;;1.28;81.60;101205.33;1734395;78;20943;-77
2020/12/29 07:01:26;;;;;;;20.72;12.90;;;;;;;1.29;81.66;101214.78;1788108;78;21100;-79
2020/12/29 07:04:04;;;;;;;19.73;13.53;;;;;;;1.32;81.66;101228.97;1786656;78;20966;-78
2020/12/29 07:06:36;;;;;;;21.68;14.90;;;;;;;1.34;81.68;101233.69;1819652;77;20895;-78
2020/12/29 07:09:21;;;;;;;23.73;16.55;;;;;;;1.36;81.64;101228.06;1786801;78;21371;-79
2020/12/29 07:12:09;;;;;;;22.50;15.48;;;;;;;1.40;81.58;101237.05;1787441;78;21455;-78
2020/12/29 07:14:37;;;;;;;21.97;14.58;;;;;;;1.39;81.49;101240.94;1763486;78;20987;-77
2020/12/29 07:17:06;;;;;;;18.95;11.50;;;;;;;1.37;81.44;101238.36;1788031;78;20958;-75
2020/12/29 07:19:39;;;;;;;21.35;12.98;;;;;;;1.38;81.52;101249.13;1788046;78;20914;-78
2020/12/29 07:22:17;;;;;;;22.95;14.15;;;;;;;1.38;81.55;101230.16;1786633;78;20940;-77
2020/12/29 07:24:48;;;;;;;22.85;15.32;;;;;;;1.36;81.65;101228.06;1786792;78;21325;-77
2020/12/29 07:27:19;;;;;;;26.97;17.62;;;;;;;1.36;81.67;101230.20;1787940;78;21216;-77
2020/12/29 07:29:54;;;;;;;23.40;15.58;;;;;;;1.39;81.77;101251.27;1786731;78;20935;-77
2020/12/29 07:32:22;;;;;;;;;;;;;;;1.41;81.66;101250.82;1788675;78;21022;-75
2020/12/29 07:34:50;;;;;;;23.67;14.63;;;;;;;1.45;81.63;101244.75;1788044;78;20153;-77
2020/12/29 07:37:20;;;;;;;23.95;13.20;;;;;;;1.46;81.55;101236.10;1788094;78;20935;-76
2020/12/29 07:39:49;;;;;;;21.80;14.50;;;;;;;1.48;81.66;101241.27;1786871;78;20988;-77
2020/12/29 07:42:17;;;;;;;27.95;16.00;;;;;;;1.49;81.71;101248.13;1787956;78;20966;-78
2020/12/29 07:44:46;;;;;;;22.75;15.23;;;;;;;1.53;81.67;101256.27;1788319;78;20957;-75
2020/12/29 07:47:16;;;;;;;26.95;18.10;;;;;;;1.56;81.47;101252.38;1788086;78;20911;-80
2020/12/29 07:49:45;;;;;;;26.48;14.87;;;;;;;1.55;81.50;101245.47;1788245;78;21321;-80
2020/12/29 07:52:23;;;;;;;22.02;13.10;;;;;;;1.60;81.44;101254.89;1788059;78;22563;-80
2020/12/29 07:55:07;;;;;;;20.35;14.33;;;;;;;1.66;81.23;101260.41;1787999;78;21010;-78
2020/12/29 07:57:35;;;;;;;26.07;16.00;;;;;;;1.69;81.31;101265.97;1766875;78;21464;-77
2020/12/29 08:00:10;;;;;;;25.50;15.50;;;;;;;1.74;81.30;101249.98;1787993;78;20911;-72
2020/12/29 08:02:43;;;;;;;21.62;13.13;;;;;;;1.80;81.20;101239.53;1786778;78;21455;-76
2020/12/29 08:05:12;;;;;;;25.00;18.15;;;;;;;1.81;80.84;101237.38;1762761;78;21197;-87
2020/12/29 08:07:44;;;;;;;25.23;15.68;;;;;;;1.79;80.89;101236.09;1788504;78;20939;-86
2020/12/29 08:10:21;;;;;;;17.23;12.68;;;;;;;1.83;80.83;101222.70;1768237;78;20942;-87
2020/12/29 08:12:58;;;;;;;15.83;11.15;;;;;;;1.85;80.67;101243.78;1790038;78;21062;-88
2020/12/29 08:15:28;;;;;;;19.05;12.73;;;;;;;1.80;80.66;101235.66;1791212;78;20970;-90
2020/12/29 08:18:10;;;;;;;19.10;12.78;;;;;;;1.74;80.90;101252.56;1791145;78;21371;-88
2020/12/29 08:20:57;;;;;;;20.25;13.05;;;;;;;1.72;81.12;101253.02;1787302;78;20951;-92
2020/12/29 08:23:27;;;;;;;24.63;15.25;;;;;;;1.68;81.16;101249.61;1787031;78;20907;-84
2020/12/29 08:26:00;;;;;;;21.50;14.03;;;;;;;1.65;81.35;101250.95;1786477;78;20955;-87
2020/12/29 08:28:33;;;;;;;21.55;13.72;;;;;;;1.68;81.36;101240.56;1786438;78;21462;-88
2020/12/29 08:31:02;;;;;;;23.85;15.38;;;;;;;1.75;81.52;101242.19;1787224;78;21149;-88
2020/12/29 08:33:31;;;;;;;24.15;15.13;;;;;;;1.79;81.38;101227.05;1787949;78;21002;-90
2020/12/29 08:36:08;;;;;;;20.35;13.38;;;;;;;1.84;81.32;101207.59;1777964;78;21395;-85
2020/12/29 08:38:46;;;;;;;24.27;15.93;;;;;;;1.88;81.10;101200.66;1789818;78;21550;-87
2020/12/29 08:41:22;;;;;;;22.15;14.68;;;;;;;1.87;81.05;101192.05;1786078;78;20903;-84
2020/12/29 08:43:53;;;;;;;22.62;15.35;;;;;;;1.89;80.95;101212.69;1787778;78;21871;-88
2020/12/29 08:46:58;;;;;;;20.32;13.20;;;;;;;1.92;80.99;101225.59;1817880;77;22414;-88
2020/12/29 08:49:36;;;;;;;18.02;12.53;;;;;;;1.88;81.06;101217.02;1767991;78;21387;-89
2020/12/29 08:52:03;;;;;;;23.20;14.58;;;;;;;1.87;81.14;101216.61;1776574;78;21067;-78
2020/12/29 08:54:37;;;;;;;28.17;15.55;;;;;;;1.90;81.30;101225.61;1768910;78;20942;-78
2020/12/29 08:57:06;;;;;;;21.90;14.33;;;;;;;1.95;81.22;101226.39;1732231;81;21066;-78
2020/12/29 08:59:40;;;;;;;24.75;14.63;;;;;;;2.02;81.06;101224.56;1715924;81;21179;-77
2020/12/29 09:02:08;;;;;;;21.25;14.23;;;;;;;2.04;80.91;101218.48;1720794;81;20959;-76
2020/12/29 09:04:37;;;;;;;16.42;10.63;;;;;;;2.08;80.82;101219.31;1755549;80;21049;-75
2020/12/29 09:07:13;;;;;;;20.97;14.63;;;;;;;2.07;80.72;101221.05;1749021;80;21618;-78
2020/12/29 09:09:58;;;;;;;22.27;15.53;;;;;;;1.99;80.86;101206.08;1756355;80;21018;-77
2020/12/29 09:12:34;;;;;;;24.03;14.27;;;;;;;1.96;81.09;101206.58;1716934;81;21128;-77
2020/12/29 09:15:10;;;;;;;24.35;14.47;;;;;;;1.97;81.23;101208.27;1706674;82;21160;-77
2020/12/29 09:17:44;;;;;;;16.80;10.88;;;;;;;1.99;81.26;101218.16;1747723;80;21163;-74
2020/12/29 09:20:24;;;;;;;20.82;14.07;;;;;;;2.01;81.14;101207.35;1730636;81;21009;-79
2020/12/29 09:23:12;;;;;;;18.23;12.13;;;;;;;2.00;81.18;101192.28;1729222;81;21145;-79
2020/12/29 09:25:42;;;;;;;20.88;12.45;;;;;;;2.04;81.27;101176.25;1756311;80;21002;-79
2020/12/29 09:28:26;;;;;;;19.15;12.33;;;;;;;2.08;81.31;101167.12;1727668;81;21144;-77
2020/12/29 09:31:10;;;;;;;19.15;13.03;;;;;;;2.16;81.25;101167.47;1714567;81;22527;-77
2020/12/29 09:33:39;;;;;;;22.98;14.95;;;;;;;2.22;81.05;101177.69;1724797;81;21053;-83
2020/12/29 09:36:19;;;;;;;20.25;12.58;;;;;;;2.24;80.94;101171.60;1720635;81;21086;-79
2020/12/29 09:38:48;;;;;;;21.40;13.45;;;;;;;2.27;80.80;101179.34;1740842;81;21678;-80
2020/12/29 09:41:16;;;;;;;24.20;15.55;;;;;;;2.28;80.81;101177.59;1730305;81;21009;-79
2020/12/29 09:43:47;;;;;;;19.57;11.83;;;;;;;2.28;80.92;101174.56;1728942;81;21563;-79
2020/12/29 09:46:15;;;;;;;21.90;13.53;;;;;;;2.33;81.00;101169.30;1719939;81;21041;-78
2020/12/29 09:48:44;;;;;;;23.10;13.98;;;;;;;2.39;80.88;101178.27;1720394;81;20969;-78
2020/12/29 09:51:14;;;;;;;20.40;14.00;;;;;;;2.40;80.77;101173.52;1720420;81;21512;-77
2020/12/29 09:53:43;;;;;;;24.57;14.87;;;;;;;2.43;80.82;101178.63;1718793;81;20946;-79
2020/12/29 09:56:20;;;;;;;23.55;13.55;;;;;;;2.51;80.77;101176.34;1716605;81;21263;-78
2020/12/29 09:58:48;;;;;;;19.73;13.10;;;;;;;2.60;80.54;101179.64;1743734;81;21041;-81
2020/12/29 10:01:16;;;;;;;21.90;13.90;;;;;;;2.66;80.30;101189.02;1722213;81;21069;-78
2020/12/29 10:03:44;;;;;;;20.02;14.23;;;;;;;2.67;80.14;101195.47;1719463;80;20975;-78
2020/12/29 10:06:15;;;;;;;23.20;14.63;;;;;;;2.65;80.23;101186.88;1736324;79;21368;-76
2020/12/29 10:08:43;;;;;;;21.17;14.35;;;;;;;2.69;80.28;101182.47;1726304;81;21737;-75
2020/12/29 10:11:12;;;;;;;24.80;15.13;;;;;;;2.75;80.03;101180.23;1717881;81;21067;-81
2020/12/29 10:13:42;;;;;;;23.95;14.53;;;;;;;2.79;79.85;101169.78;1768379;79;20969;-77
2020/12/29 10:16:10;;;;;;;19.50;12.55;;;;;;;2.84;79.77;101169.69;1719610;81;20943;-78
2020/12/29 10:18:42;;;;;;;22.22;13.95;;;;;;;2.88;79.59;101162.27;1748909;80;21029;-79
2020/12/29 10:21:11;;;;;;;21.57;14.07;;;;;;;2.87;79.52;101159.29;1742234;79;21745;-78
2020/12/29 10:23:39;;;;;;;25.20;14.87;;;;;;;2.86;79.60;101146.75;1719270;81;21065;-77
2020/12/29 10:26:07;;;;;;;23.02;14.33;;;;;;;2.88;79.50;101146.28;1717001;81;21058;-78
2020/12/29 10:28:36;;;;;;;23.32;15.03;;;;;;;2.87;79.39;101140.71;1723392;81;20986;-78
2020/12/29 10:31:04;;;;;;;22.27;13.35;;;;;;;2.87;79.41;101138.56;1727947;82;20942;-77
2020/12/29 10:33:32;;;;;;;20.88;12.43;;;;;;;2.90;79.39;101145.81;1740723;80;21468;-78
2020/12/29 10:36:00;;;;;;;25.48;13.22;;;;;;;2.92;79.38;101141.06;1713570;81;21037;-79
2020/12/29 10:38:29;;;;;;;20.62;12.90;;;;;;;2.93;79.54;101144.90;1713188;81;21183;-76
2020/12/29 10:40:57;;;;;;;24.15;14.55;;;;;;;2.96;79.47;101152.63;1716704;81;21128;-79
2020/12/29 10:43:25;;;;;;;21.75;14.10;;;;;;;2.98;79.30;101148.69;1745297;80;21037;-77
2020/12/29 10:45:53;;;;;;;23.32;13.62;;;;;;;2.96;79.24;101154.34;1731108;81;22617;-76
2020/12/29 10:48:21;;;;;;;21.75;14.63;;;;;;;2.96;79.26;101162.11;1736040;81;21037;-76
2020/12/29 10:50:49;;;;;;;16.40;11.12;;;;;;;2.97;79.29;101147.00;1718300;80;20988;-74
2020/12/29 10:53:17;;;;;;;17.87;12.53;;;;;;;3.04;79.21;101149.88;1757408;80;21627;-75
2020/12/29 10:55:48;;;;;;;20.62;13.80;;;;;;;3.05;79.25;101156.77;1716219;82;20967;-75
2020/12/29 10:58:16;;;;;;;18.98;11.95;;;;;;;3.09;79.09;101150.62;1737667;79;21993;-77
2020/12/29 11:00:49;;;;;;;20.12;13.50;;;;;;;3.08;79.08;101152.81;1718760;81;21503;-76
2020/12/29 11:03:17;;;;;;;17.73;11.22;;;;;;;3.05;79.04;101148.55;1750006;80;20970;-76
2020/12/29 11:05:44;;;;;;;16.77;11.63;;;;;;;3.07;79.06;101147.23;1731781;81;21020;-76
2020/12/29 11:08:12;;;;;;;15.85;10.38;;;;;;;3.10;79.01;101155.78;1722117;81;21408;-76
2020/12/29 11:10:41;;;;;;;18.23;13.50;;;;;;;3.12;79.05;101150.58;1749324;80;21096;-77
2020/12/29 11:13:11;;;;;;;18.02;12.47;;;;;;;3.13;79.13;101154.02;1714494;81;21554;-79
2020/12/29 11:15:39;;;;;;;16.85;11.75;;;;;;;3.15;79.18;101156.98;1743379;80;21096;-75
2020/12/29 11:18:08;;;;;;;20.32;13.60;;;;;;;3.15;78.98;101156.13;1708895;81;20966;-76
2020/12/29 11:20:36;;;;;;;18.50;12.13;;;;;;;3.12;79.10;101158.34;1725219;81;21059;-77
2020/12/29 11:23:05;;;;;;;16.32;10.82;;;;;;;3.13;79.05;101150.97;1748334;80;21706;-75
2020/12/29 11:25:34;;;;;;;17.65;12.05;;;;;;;3.11;79.04;101148.44;1730965;81;21116;-75
2020/12/29 11:28:02;;;;;;;16.57;11.85;;;;;;;3.04;79.24;101136.47;1731720;81;21622;-77
2020/12/29 11:30:30;;;;;;;17.12;11.70;;;;;;;3.05;79.39;101136.89;1732691;81;20959;-77
2020/12/29 11:32:58;;;;;;;20.27;12.05;;;;;;;3.05;79.50;101136.05;1727433;81;21152;-77
2020/12/29 11:35:27;;;;;;;17.05;12.70;;;;;;;3.04;79.54;101140.80;1732067;81;21616;-77
2020/12/29 11:37:55;;;;;;;18.23;11.65;;;;;;;3.01;79.58;101146.05;1722535;81;20986;-73